Time;durP1;ratioP1;P1;durP2;ratioP2;P2;SDS_P1;SDS_P2;PMS_P1;PMS_P2;Temp;Humidity;BMP_temperature;BMP_pressure;BME280_temperature;BME280_humidity;BME280_pressure;Samples;Min_cycle;Max_cycle;Signal;HPM_P1;HPM_P2
2022/12/24 00:00:06;;;;;;;62.20;35.52;;;;;;;3.52;100.00;98589.78;1736813;82;20984;-70
2022/12/24 00:02:33;;;;;;;58.73;34.98;;;;;;;3.47;100.00;98589.67;1731369;82;21150;-70
2022/12/24 00:05:00;;;;;;;61.37;36.45;;;;;;;3.54;100.00;98586.91;1718999;82;21520;-70
2022/12/24 00:07:28;;;;;;;57.25;34.35;;;;;;;3.53;100.00;98591.42;1700895;82;21000;-70
2022/12/24 00:09:55;;;;;;;64.17;34.55;;;;;;;3.65;100.00;98590.89;1727824;82;21020;-68
2022/12/24 00:12:21;;;;;;;59.33;33.90;;;;;;;3.60;100.00;98596.09;1736418;82;20953;-69
2022/12/24 00:14:49;;;;;;;59.80;35.80;;;;;;;3.61;100.00;98595.04;1726634;82;21241;-69
2022/12/24 00:17:16;;;;;;;61.68;35.95;;;;;;;3.57;100.00;98596.53;1733925;82;21530;-69
2022/12/24 00:19:43;;;;;;;84.50;35.52;;;;;;;3.59;100.00;98591.80;1725795;82;20837;-69
2022/12/24 00:22:09;;;;;;;58.02;30.85;;;;;;;3.58;100.00;98599.49;1723023;82;21455;-69
2022/12/24 00:24:38;;;;;;;66.28;39.18;;;;;;;3.60;100.00;98596.59;1723169;82;21128;-69
2022/12/24 00:27:04;;;;;;;59.13;35.92;;;;;;;3.64;100.00;98596.42;1725811;82;21158;-70
2022/12/24 00:29:32;;;;;;;70.87;38.35;;;;;;;3.65;100.00;98596.20;1733168;82;20992;-69
2022/12/24 00:31:59;;;;;;;63.00;37.25;;;;;;;3.68;100.00;98603.42;1730143;82;21070;-69
2022/12/24 00:34:26;;;;;;;56.75;35.23;;;;;;;3.63;100.00;98594.30;1726084;82;21047;-69
2022/12/24 00:36:53;;;;;;;65.80;35.83;;;;;;;3.65;100.00;98602.84;1732565;82;21044;-69
2022/12/24 00:39:19;;;;;;;75.70;40.88;;;;;;;3.64;100.00;98599.08;1725622;82;21237;-69
2022/12/24 00:41:49;;;;;;;60.38;37.85;;;;;;;3.61;100.00;98600.88;1732733;82;20971;-69
2022/12/24 00:44:16;;;;;;;67.70;36.50;;;;;;;3.59;100.00;98601.09;1729449;82;21622;-69
2022/12/24 00:46:43;;;;;;;66.20;37.90;;;;;;;3.46;100.00;98590.73;1730624;82;20983;-69
2022/12/24 00:49:11;;;;;;;74.03;39.33;;;;;;;3.54;100.00;98590.37;1731586;82;21059;-68
2022/12/24 00:51:38;;;;;;;74.10;37.83;;;;;;;3.54;100.00;98583.73;1728162;82;21240;-69
2022/12/24 00:54:05;;;;;;;73.20;40.40;;;;;;;3.61;100.00;98580.45;1732173;82;21301;-69
2022/12/24 00:56:32;;;;;;;75.42;39.67;;;;;;;3.67;100.00;98585.34;1728399;82;20964;-69
2022/12/24 00:58:59;;;;;;;77.62;39.88;;;;;;;3.91;100.00;98597.27;1736376;82;21036;-69
2022/12/24 01:01:25;;;;;;;85.20;52.48;;;;;;;3.82;100.00;98586.18;1735208;82;21020;-69
2022/12/24 01:05:08;;;;;;;72.40;41.15;;;;;;;3.81;100.00;98584.05;1736463;82;21269;-69
2022/12/24 01:06:22;;;;;;;76.55;42.48;;;;;;;3.79;100.00;98583.47;1733856;82;21539;-69
2022/12/24 01:08:50;;;;;;;73.70;42.95;;;;;;;3.76;100.00;98575.19;1733361;82;20992;-69
2022/12/24 01:11:17;;;;;;;70.50;38.20;;;;;;;3.67;100.00;98577.90;1731477;82;21576;-68
2022/12/24 01:13:45;;;;;;;;;;;;;;;3.70;100.00;98576.93;1725767;82;20995;-69
2022/12/24 01:16:19;;;;;;;76.25;43.38;;;;;;;3.77;100.00;98576.29;1729847;82;20103;-69
2022/12/24 01:18:45;;;;;;;74.15;45.17;;;;;;;3.78;100.00;98573.91;1734026;82;21547;-68
2022/12/24 01:21:12;;;;;;;77.27;42.23;;;;;;;3.94;100.00;98582.19;1731560;82;21443;-69
2022/12/24 01:23:39;;;;;;;72.58;42.83;;;;;;;3.64;100.00;98589.78;1708376;82;20904;-68
2022/12/24 01:26:06;;;;;;;76.33;41.10;;;;;;;3.66;100.00;98578.42;1734658;82;20958;-69
2022/12/24 01:28:34;;;;;;;78.40;42.45;;;;;;;3.58;100.00;98573.48;1732347;82;21423;-69
2022/12/24 01:31:00;;;;;;;72.60;40.92;;;;;;;3.67;100.00;98576.57;1733907;82;20866;-69
2022/12/24 01:33:29;;;;;;;71.62;38.45;;;;;;;3.78;100.00;98579.74;1724104;82;21014;-69
2022/12/24 01:35:55;;;;;;;82.95;47.23;;;;;;;3.55;100.00;98568.13;1728207;82;21010;-69
2022/12/24 01:38:22;;;;;;;80.10;44.00;;;;;;;3.57;100.00;98569.20;1731826;82;20921;-69
2022/12/24 01:43:33;;;;;;;74.65;42.65;;;;;;;3.49;100.00;98557.09;1733629;82;20987;-70
2022/12/24 01:46:09;;;;;;;80.38;46.25;;;;;;;3.60;100.00;98565.58;1728196;82;20948;-70
2022/12/24 01:48:47;;;;;;;74.17;42.03;;;;;;;3.38;100.00;98567.17;1723520;82;21042;-69
2022/12/24 01:51:38;;;;;;;75.52;41.28;;;;;;;3.61;100.00;98562.39;1729049;82;21406;-69
2022/12/24 01:54:09;;;;;;;71.15;42.17;;;;;;;3.63;100.00;98548.38;1735253;82;21272;-69
2022/12/24 01:56:39;;;;;;;80.77;44.67;;;;;;;3.68;100.00;98547.16;1737612;82;20960;-69
2022/12/24 01:59:09;;;;;;;75.65;41.53;;;;;;;3.67;100.00;98549.51;1732505;82;21029;-69
2022/12/24 02:01:35;;;;;;;67.32;37.67;;;;;;;3.73;100.00;98548.59;1730945;82;21554;-70
2022/12/24 02:04:17;;;;;;;76.97;42.20;;;;;;;3.83;100.00;98548.00;1734552;82;21574;-70
2022/12/24 02:06:44;;;;;;;64.87;40.70;;;;;;;3.75;100.00;98550.50;1736983;82;21345;-70
2022/12/24 02:09:10;;;;;;;69.90;40.33;;;;;;;3.69;100.00;98549.28;1727455;82;20893;-69
2022/12/24 02:11:38;;;;;;;78.20;44.23;;;;;;;3.68;100.00;98552.99;1733140;82;20876;-70
2022/12/24 02:14:04;;;;;;;83.33;44.30;;;;;;;3.34;100.00;98550.12;1726380;82;20919;-70
2022/12/24 02:17:28;;;;;;;74.85;43.23;;;;;;;3.39;100.00;98543.61;1708741;82;21032;-70
2022/12/24 02:20:31;;;;;;;80.57;42.50;;;;;;;3.38;100.00;98548.61;1687670;84;21277;-69
2022/12/24 02:23:26;;;;;;;74.80;40.28;;;;;;;3.58;100.00;98547.75;1686006;84;21057;-68
2022/12/24 02:26:11;;;;;;;66.35;35.90;;;;;;;3.68;100.00;98541.85;1685695;84;20922;-70
2022/12/24 02:28:46;;;;;;;76.92;40.90;;;;;;;3.63;100.00;98544.40;1685615;84;20998;-70
2022/12/24 02:31:30;;;;;;;71.67;41.08;;;;;;;3.71;100.00;98544.03;1684914;84;21486;-70
2022/12/24 02:34:39;;;;;;;71.95;41.95;;;;;;;3.75;100.00;98545.19;1682856;84;21923;-70
2022/12/24 02:37:22;;;;;;;75.67;43.83;;;;;;;3.52;100.00;98549.98;1634430;86;21004;-70
2022/12/24 02:40:02;;;;;;;69.87;39.98;;;;;;;3.70;100.00;98557.52;1638053;85;21592;-70
2022/12/24 02:42:40;;;;;;;67.27;38.10;;;;;;;3.75;100.00;98545.19;1640399;86;21599;-70
2022/12/24 02:45:21;;;;;;;70.28;39.78;;;;;;;3.76;100.00;98545.98;1610086;87;21030;-70
2022/12/24 02:47:48;;;;;;;63.55;37.45;;;;;;;3.78;100.00;98547.89;1597442;89;21248;-69
2022/12/24 02:50:17;;;;;;;75.32;43.28;;;;;;;3.75;100.00;98550.98;1606301;88;20905;-69
2022/12/24 02:52:45;;;;;;;70.05;39.55;;;;;;;3.67;100.00;98556.67;1596351;88;21462;-70
2022/12/24 02:55:20;;;;;;;67.53;40.43;;;;;;;3.87;100.00;98557.08;1594037;89;21064;-70
2022/12/24 02:58:16;;;;;;;68.28;39.40;;;;;;;3.80;100.00;98551.13;1606558;88;21190;-70
2022/12/24 03:01:16;;;;;;;70.78;39.00;;;;;;;3.75;100.00;98554.97;1592815;89;21386;-70
2022/12/24 03:03:54;;;;;;;64.58;36.00;;;;;;;3.79;100.00;98551.62;1608421;87;21054;-70
2022/12/24 03:06:56;;;;;;;64.20;37.77;;;;;;;3.75;100.00;98545.68;1597865;88;20965;-70
2022/12/24 03:09:57;;;;;;;67.08;37.42;;;;;;;3.76;100.00;98551.30;1605277;89;21583;-70
2022/12/24 03:12:35;;;;;;;93.70;48.02;;;;;;;3.83;100.00;98548.00;1585746;89;21198;-68
2022/12/24 03:15:03;;;;;;;116.83;64.00;;;;;;;3.89;100.00;98544.91;1641043;85;21286;-69
2022/12/24 03:17:31;;;;;;;110.08;56.00;;;;;;;3.77;100.00;98545.77;1685258;82;20964;-69
2022/12/24 03:19:57;;;;;;;98.78;50.65;;;;;;;3.77;100.00;98547.59;1736590;82;21099;-69
2022/12/24 03:22:24;;;;;;;90.42;50.75;;;;;;;3.68;100.00;98551.66;1737916;82;21542;-69
2022/12/24 03:24:51;;;;;;;84.15;46.80;;;;;;;3.67;100.00;98550.03;1737653;82;21569;-68
2022/12/24 03:27:17;;;;;;;68.95;36.40;;;;;;;3.64;100.00;98546.80;1734911;82;21549;-69
2022/12/24 03:29:44;;;;;;;65.97;32.78;;;;;;;3.57;100.00;98543.47;1738666;82;20889;-69
2022/12/24 03:32:12;;;;;;;64.37;33.08;;;;;;;3.60;100.00;98540.86;1687495;82;20955;-69
2022/12/24 03:34:38;;;;;;;75.83;40.35;;;;;;;3.51;100.00;98540.42;1729111;82;21474;-69
2022/12/24 03:37:05;;;;;;;72.90;42.20;;;;;;;3.54;100.00;98537.83;1736498;82;20989;-69
2022/12/24 03:39:33;;;;;;;70.55;37.85;;;;;;;3.50;100.00;98526.86;1729248;82;21371;-70
2022/12/24 03:41:59;;;;;;;76.35;40.85;;;;;;;3.52;100.00;98531.94;1723013;82;21002;-69
2022/12/24 03:44:26;;;;;;;74.82;40.50;;;;;;;3.56;100.00;98535.23;1723059;82;20935;-69
2022/12/24 03:46:53;;;;;;;69.75;39.25;;;;;;;3.40;100.00;98525.31;1726012;82;20919;-71
2022/12/24 03:49:19;;;;;;;73.20;42.17;;;;;;;3.62;100.00;98530.30;1729479;82;20967;-71
2022/12/24 03:51:46;;;;;;;75.83;43.33;;;;;;;3.67;100.00;98526.15;1723460;82;21272;-69
2022/12/24 03:54:13;;;;;;;72.62;40.88;;;;;;;3.60;100.00;98522.28;1736631;82;20989;-70
2022/12/24 03:56:39;;;;;;;71.15;38.92;;;;;;;3.64;100.00;98526.09;1726029;82;20979;-69
2022/12/24 03:59:06;;;;;;;78.52;43.02;;;;;;;3.74;100.00;98526.30;1737582;82;21076;-69
2022/12/24 04:01:32;;;;;;;74.27;44.00;;;;;;;3.77;100.00;98527.19;1738296;82;20960;-69
2022/12/24 04:03:59;;;;;;;75.67;42.90;;;;;;;3.79;100.00;98522.95;1738873;82;21219;-69
2022/12/24 04:06:26;;;;;;;80.15;47.13;;;;;;;3.85;100.00;98521.50;1733616;82;20987;-69
2022/12/24 04:08:53;;;;;;;67.25;35.03;;;;;;;3.86;100.00;98528.41;1739436;82;21055;-70
2022/12/24 04:11:19;;;;;;;136.25;86.55;;;;;;;3.77;100.00;98531.66;1735423;82;20939;-70
2022/12/24 04:13:46;;;;;;;79.10;44.50;;;;;;;3.74;100.00;98528.16;1735812;82;21589;-69
2022/12/24 04:16:15;;;;;;;73.37;41.02;;;;;;;3.70;100.00;98522.52;1736877;82;21279;-70
2022/12/24 04:18:42;;;;;;;85.20;44.10;;;;;;;3.64;100.00;98518.94;1737250;82;20984;-69
2022/12/24 04:21:09;;;;;;;84.50;40.30;;;;;;;3.67;100.00;98522.97;1736491;82;21058;-70
2022/12/24 04:23:39;;;;;;;202.47;123.50;;;;;;;3.76;100.00;98530.06;1737200;82;21039;-69
2022/12/24 04:26:08;;;;;;;90.70;52.20;;;;;;;3.90;100.00;98532.74;1735450;82;26372;-70
2022/12/24 04:28:35;;;;;;;66.82;38.40;;;;;;;3.93;100.00;98542.09;1733592;82;21832;-70
2022/12/24 04:31:06;;;;;;;87.75;51.10;;;;;;;3.73;100.00;98541.95;1729117;82;20999;-70
2022/12/24 04:33:33;;;;;;;64.05;36.23;;;;;;;3.71;100.00;98543.23;1725442;82;21631;-70
2022/12/24 04:36:01;;;;;;;78.12;45.73;;;;;;;3.61;100.00;98543.30;1730967;82;20945;-70
2022/12/24 04:38:28;;;;;;;99.35;62.23;;;;;;;3.72;100.00;98538.20;1738598;82;21406;-70
2022/12/24 04:41:01;;;;;;;109.52;57.90;;;;;;;3.95;100.00;98543.47;1731771;82;21268;-70
2022/12/24 04:43:28;;;;;;;118.62;63.02;;;;;;;3.79;100.00;98542.86;1730930;82;20966;-70
2022/12/24 04:45:55;;;;;;;63.80;38.33;;;;;;;3.74;100.00;98548.86;1725327;82;21450;-71
2022/12/24 04:48:22;;;;;;;71.80;39.53;;;;;;;3.81;100.00;98550.88;1737257;82;21141;-70
2022/12/24 04:50:49;;;;;;;66.28;37.45;;;;;;;3.90;100.00;98555.31;1730472;82;21634;-70
2022/12/24 04:53:16;;;;;;;75.70;44.20;;;;;;;3.96;100.00;98546.92;1734976;82;21162;-69
2022/12/24 04:55:46;;;;;;;82.27;45.92;;;;;;;3.83;100.00;98543.48;1734525;82;20943;-70
2022/12/24 04:58:13;;;;;;;70.05;43.98;;;;;;;3.72;100.00;98542.17;1717634;82;21418;-70
2022/12/24 05:00:40;;;;;;;69.12;42.23;;;;;;;3.75;100.00;98543.03;1728307;82;21530;-70
2022/12/24 05:03:07;;;;;;;67.70;38.55;;;;;;;3.71;100.00;98541.91;1737237;82;20929;-70
2022/12/24 05:05:35;;;;;;;70.28;40.38;;;;;;;3.60;100.00;98544.84;1727486;82;21410;-71
2022/12/24 05:08:02;;;;;;;68.75;41.15;;;;;;;3.63;100.00;98550.51;1724225;82;21410;-71
2022/12/24 05:10:30;;;;;;;74.30;40.38;;;;;;;3.65;100.00;98551.09;1733083;82;21419;-69
2022/12/24 05:12:58;;;;;;;72.22;40.88;;;;;;;3.56;100.00;98546.37;1736915;82;20977;-69
2022/12/24 05:15:25;;;;;;;76.40;47.15;;;;;;;3.68;100.00;98545.83;1737308;82;20977;-69
2022/12/24 05:17:52;;;;;;;70.00;39.73;;;;;;;3.67;100.00;98549.51;1732475;82;21308;-69
2022/12/24 05:20:18;;;;;;;65.30;37.25;;;;;;;3.58;100.00;98546.95;1729289;82;21042;-69
2022/12/24 05:28:21;;;;;;;65.90;39.40;;;;;;;3.57;100.00;98544.79;1730817;82;20919;-69
2022/12/24 05:30:49;;;;;;;67.17;38.75;;;;;;;3.56;100.00;98549.82;1723355;82;20915;-69
2022/12/24 05:33:16;;;;;;;65.90;36.85;;;;;;;3.49;100.00;98546.48;1729751;82;21524;-69
2022/12/24 05:35:43;;;;;;;66.67;37.35;;;;;;;3.47;100.00;98544.58;1730562;82;20998;-69
2022/12/24 05:38:09;;;;;;;74.37;41.20;;;;;;;3.46;100.00;98546.16;1726927;82;20966;-69
2022/12/24 05:40:37;;;;;;;71.95;38.78;;;;;;;3.53;100.00;98548.97;1723301;82;21552;-70
2022/12/24 05:43:03;;;;;;;64.37;40.88;;;;;;;3.65;100.00;98553.73;1737156;82;21202;-70
2022/12/24 05:45:30;;;;;;;67.27;39.05;;;;;;;3.54;100.00;98549.77;1730529;82;21577;-69
2022/12/24 05:47:56;;;;;;;68.60;41.25;;;;;;;3.73;100.00;98545.94;1728051;82;20980;-70
2022/12/24 05:50:23;;;;;;;68.65;37.70;;;;;;;3.74;100.00;98546.20;1733490;82;21042;-71
2022/12/24 05:52:53;;;;;;;74.70;42.35;;;;;;;3.70;100.00;98552.21;1736108;82;20995;-70
2022/12/24 05:55:19;;;;;;;90.03;51.77;;;;;;;3.54;100.00;98557.73;1731331;82;21262;-69
2022/12/24 05:57:46;;;;;;;89.28;52.23;;;;;;;3.62;100.00;98556.84;1732473;82;21032;-69
2022/12/24 06:00:15;;;;;;;78.97;45.55;;;;;;;3.66;100.00;98553.21;1728796;82;20987;-70
2022/12/24 06:02:42;;;;;;;93.35;49.30;;;;;;;3.62;100.00;98554.19;1735226;82;20905;-70
2022/12/24 06:05:09;;;;;;;81.85;45.80;;;;;;;3.64;100.00;98557.42;1726143;82;20948;-69
2022/12/24 06:07:36;;;;;;;102.17;57.93;;;;;;;3.67;100.00;98567.28;1737135;82;21849;-70
2022/12/24 06:10:06;;;;;;;78.20;40.48;;;;;;;3.64;100.00;98556.61;1738066;82;20854;-70
2022/12/24 06:12:32;;;;;;;89.42;47.98;;;;;;;3.62;100.00;98563.47;1735139;82;20883;-70
2022/12/24 06:14:59;;;;;;;105.58;48.13;;;;;;;3.60;100.00;98560.27;1738399;82;20898;-71
2022/12/24 06:17:26;;;;;;;125.70;59.38;;;;;;;3.56;100.00;98560.96;1725441;82;21563;-70
2022/12/24 06:19:53;;;;;;;92.95;53.30;;;;;;;3.61;100.00;98566.38;1728216;82;21376;-70
2022/12/24 06:22:19;;;;;;;87.55;46.20;;;;;;;3.71;100.00;98563.94;1728698;82;20927;-71
2022/12/24 06:24:46;;;;;;;122.33;66.15;;;;;;;3.58;100.00;98562.34;1723786;82;21055;-70
2022/12/24 06:27:13;;;;;;;107.70;54.88;;;;;;;3.80;100.00;98565.20;1725756;82;21043;-70
2022/12/24 06:29:40;;;;;;;98.95;53.38;;;;;;;3.75;100.00;98573.55;1723333;82;20946;-70
2022/12/24 06:32:06;;;;;;;85.05;48.35;;;;;;;3.69;100.00;98581.13;1735130;82;21312;-70
2022/12/24 06:34:33;;;;;;;113.92;58.90;;;;;;;3.71;100.00;98571.09;1731874;82;20983;-70
2022/12/24 06:37:00;;;;;;;89.03;50.28;;;;;;;3.72;100.00;98574.83;1738600;82;20961;-70
2022/12/24 06:39:28;;;;;;;107.60;60.40;;;;;;;3.76;100.00;98581.82;1727978;82;21004;-70
2022/12/24 06:41:55;;;;;;;82.60;46.85;;;;;;;3.75;100.00;98581.52;1735285;82;21030;-70
2022/12/24 06:44:23;;;;;;;85.90;47.93;;;;;;;3.89;100.00;98574.12;1738881;82;21242;-70
2022/12/24 06:46:50;;;;;;;87.55;48.10;;;;;;;3.97;100.00;98573.25;1728122;82;21031;-70
2022/12/24 06:49:17;;;;;;;93.35;51.25;;;;;;;3.78;100.00;98565.95;1729281;82;20971;-70
2022/12/24 06:51:43;;;;;;;98.60;51.55;;;;;;;3.76;100.00;98575.19;1723154;82;21035;-70
2022/12/24 06:54:10;;;;;;;97.53;54.85;;;;;;;3.64;100.00;98578.65;1726698;82;20976;-70
2022/12/24 06:56:37;;;;;;;105.85;60.65;;;;;;;3.78;100.00;98578.42;1731460;82;21260;-70
2022/12/24 06:59:03;;;;;;;134.80;77.50;;;;;;;3.79;100.00;98578.69;1728112;82;21556;-70
2022/12/24 07:01:30;;;;;;;121.17;67.95;;;;;;;3.78;100.00;98591.16;1735295;82;21562;-70
2022/12/24 07:03:56;;;;;;;108.47;56.63;;;;;;;3.73;100.00;98591.58;1728555;82;20984;-70
2022/12/24 07:06:28;;;;;;;102.92;55.90;;;;;;;3.82;100.00;98592.32;1724840;82;21082;-70
2022/12/24 07:08:54;;;;;;;83.85;49.48;;;;;;;3.84;100.00;98587.56;1727469;82;21120;-69
2022/12/24 07:11:22;;;;;;;91.22;51.70;;;;;;;3.90;100.00;98588.50;1737585;82;20917;-69
2022/12/24 07:13:49;;;;;;;85.00;47.85;;;;;;;4.06;100.00;98592.26;1702167;82;20872;-68
2022/12/24 07:16:16;;;;;;;84.45;47.62;;;;;;;4.24;100.00;98589.98;1729908;82;20856;-69
2022/12/24 07:18:43;;;;;;;78.72;47.00;;;;;;;4.19;100.00;98593.34;1731228;82;20996;-69
2022/12/24 07:21:10;;;;;;;81.97;47.73;;;;;;;4.20;100.00;98594.94;1721926;82;21267;-70
2022/12/24 07:23:37;;;;;;;92.88;54.50;;;;;;;4.15;100.00;98594.04;1735519;82;20964;-70
2022/12/24 07:26:05;;;;;;;92.65;56.45;;;;;;;4.34;100.00;98596.81;1727983;82;20919;-70
2022/12/24 07:28:32;;;;;;;116.73;64.60;;;;;;;4.28;100.00;98587.11;1728187;82;20977;-70
2022/12/24 07:30:58;;;;;;;114.17;55.50;;;;;;;4.27;100.00;98584.19;1733194;82;21526;-70
2022/12/24 07:33:25;;;;;;;125.33;68.40;;;;;;;4.17;100.00;98593.28;1727427;82;21223;-70
2022/12/24 07:36:03;;;;;;;121.02;63.68;;;;;;;4.31;100.00;98590.62;1728217;82;21536;-70
2022/12/24 07:38:30;;;;;;;123.67;65.20;;;;;;;4.50;100.00;98585.94;1736560;82;20960;-70
2022/12/24 07:40:57;;;;;;;105.58;59.10;;;;;;;4.41;100.00;98578.05;1726969;82;20956;-69
2022/12/24 07:43:25;;;;;;;102.25;58.25;;;;;;;4.44;100.00;98582.91;1735242;82;20854;-70
2022/12/24 07:45:57;;;;;;;99.90;55.08;;;;;;;4.41;100.00;98575.39;1736823;82;21904;-70
2022/12/24 07:48:25;;;;;;;94.00;54.60;;;;;;;4.46;100.00;98582.16;1735598;82;21566;-70
2022/12/24 07:50:52;;;;;;;92.00;54.30;;;;;;;4.55;100.00;98582.56;1726516;82;28026;-70
2022/12/24 07:53:19;;;;;;;100.35;57.25;;;;;;;4.48;100.00;98585.36;1733757;82;20987;-69
2022/12/24 07:55:45;;;;;;;84.22;49.83;;;;;;;4.53;100.00;98581.99;1709126;82;20999;-70
2022/12/24 07:58:12;;;;;;;81.47;48.08;;;;;;;4.45;100.00;98587.97;1733855;82;21719;-70
2022/12/24 08:00:39;;;;;;;88.55;48.63;;;;;;;4.50;100.00;98593.38;1734271;82;21052;-70
2022/12/24 08:03:05;;;;;;;78.35;44.70;;;;;;;4.47;100.00;98599.17;1731740;82;21559;-70
2022/12/24 08:05:35;;;;;;;82.57;52.43;;;;;;;4.46;100.00;98601.56;1730830;82;21050;-70
2022/12/24 08:08:04;;;;;;;88.33;47.45;;;;;;;4.71;100.00;98599.08;1729227;82;21534;-69
2022/12/24 08:10:31;;;;;;;94.77;55.00;;;;;;;4.60;100.00;98607.91;1737334;82;21299;-69
2022/12/24 08:12:57;;;;;;;84.17;49.10;;;;;;;4.73;100.00;98607.63;1729860;82;20928;-70
2022/12/24 08:15:24;;;;;;;96.08;53.83;;;;;;;4.68;100.00;98616.31;1723533;82;20927;-70
2022/12/24 08:17:51;;;;;;;98.12;54.80;;;;;;;4.70;100.00;98613.41;1725834;82;21050;-70
2022/12/24 08:20:18;;;;;;;75.70;44.30;;;;;;;4.94;100.00;98618.09;1725635;82;20881;-70
2022/12/24 08:22:44;;;;;;;86.40;49.55;;;;;;;4.70;100.00;98613.41;1732694;82;21248;-70
2022/12/24 08:25:11;;;;;;;61.25;37.33;;;;;;;4.68;100.00;98607.02;1731073;82;20890;-70
2022/12/24 08:27:38;;;;;;;68.02;42.30;;;;;;;4.72;100.00;98609.46;1736276;82;20937;-70
2022/12/24 08:30:07;;;;;;;81.50;49.53;;;;;;;4.83;100.00;98603.82;1731051;82;20944;-70
2022/12/24 08:32:35;;;;;;;73.25;45.03;;;;;;;4.81;100.00;98601.12;1726095;82;21390;-70
2022/12/24 08:35:02;;;;;;;85.57;48.13;;;;;;;4.57;100.00;98602.55;1737267;82;21148;-69
2022/12/24 08:37:28;;;;;;;80.47;49.03;;;;;;;4.70;100.00;98595.62;1739267;82;20988;-69
2022/12/24 08:39:56;;;;;;;86.85;52.78;;;;;;;4.70;100.00;98603.60;1732033;82;20971;-70
2022/12/24 08:42:23;;;;;;;75.92;48.35;;;;;;;4.74;100.00;98601.26;1727844;82;21045;-70
2022/12/24 08:44:50;;;;;;;73.90;46.13;;;;;;;4.80;100.00;98602.98;1728554;82;21096;-70
2022/12/24 08:47:16;;;;;;;79.85;47.85;;;;;;;4.84;100.00;98606.75;1735352;82;21314;-71
2022/12/24 08:49:43;;;;;;;79.07;49.75;;;;;;;4.87;100.00;98607.59;1730249;82;20982;-70
2022/12/24 08:52:10;;;;;;;91.97;49.40;;;;;;;4.81;100.00;98601.12;1735971;82;20956;-69
2022/12/24 08:54:37;;;;;;;78.95;48.23;;;;;;;4.77;100.00;98595.98;1731564;82;21038;-71
2022/12/24 08:57:04;;;;;;;73.80;47.10;;;;;;;4.93;100.00;98591.22;1733088;82;21640;-70
2022/12/24 08:59:30;;;;;;;93.65;55.92;;;;;;;4.87;100.00;98595.62;1726466;82;21162;-70
2022/12/24 09:01:57;;;;;;;71.70;42.05;;;;;;;4.89;100.00;98588.75;1728451;82;20992;-71
2022/12/24 09:04:24;;;;;;;70.67;41.95;;;;;;;4.76;100.00;98591.73;1739525;82;21064;-70
2022/12/24 09:06:51;;;;;;;75.52;45.60;;;;;;;4.79;100.00;98594.70;1728799;82;21002;-70
2022/12/24 09:09:17;;;;;;;78.40;46.42;;;;;;;4.93;100.00;98602.66;1732991;82;21030;-70
2022/12/24 09:11:44;;;;;;;70.75;39.45;;;;;;;5.03;100.00;98605.22;1728228;82;21166;-70
2022/12/24 09:14:11;;;;;;;74.30;44.18;;;;;;;4.96;100.00;98601.91;1736323;82;20976;-70
2022/12/24 09:16:38;;;;;;;81.92;49.63;;;;;;;4.86;100.00;98599.88;1735721;82;21052;-71
2022/12/24 09:19:05;;;;;;;73.75;43.90;;;;;;;4.74;100.00;98599.93;1729893;82;20992;-71
2022/12/24 09:21:31;;;;;;;81.35;45.78;;;;;;;4.69;100.00;98601.17;1738204;82;20992;-71
2022/12/24 09:24:00;;;;;;;83.03;47.05;;;;;;;4.76;100.00;98602.36;1735804;82;21495;-70
2022/12/24 09:26:28;;;;;;;;;;;;;;;4.89;100.00;98606.84;1735813;82;20932;-71
2022/12/24 09:28:56;;;;;;;74.55;41.98;;;;;;;4.86;100.00;98602.00;1728464;82;20095;-68
2022/12/24 09:31:23;;;;;;;85.70;48.17;;;;;;;4.74;100.00;98599.93;1736071;82;20905;-70
2022/12/24 09:33:50;;;;;;;79.65;45.25;;;;;;;4.91;100.00;98594.11;1723215;82;21488;-70
2022/12/24 09:36:18;;;;;;;98.25;52.83;;;;;;;5.05;100.00;98603.92;1726711;82;21271;-70
2022/12/24 09:38:44;;;;;;;87.03;47.97;;;;;;;5.19;100.00;98607.59;1733290;82;20897;-70
2022/12/24 09:41:32;;;;;;;84.35;46.02;;;;;;;5.19;100.00;98607.59;1733027;82;21445;-70
2022/12/24 09:44:04;;;;;;;85.90;50.30;;;;;;;5.32;100.00;98602.77;1730070;82;21011;-70
2022/12/24 09:46:36;;;;;;;87.47;48.05;;;;;;;5.40;100.00;98601.55;1725999;82;21431;-69
2022/12/24 09:49:07;;;;;;;90.77;54.60;;;;;;;5.62;100.00;98606.13;1729371;82;21208;-70
2022/12/24 09:51:42;;;;;;;80.60;46.95;;;;;;;5.68;100.00;98615.78;1736105;82;20937;-70
2022/12/24 09:54:22;;;;;;;75.55;45.40;;;;;;;5.76;100.00;98620.71;1735591;82;20905;-70
2022/12/24 09:56:49;;;;;;;78.55;45.12;;;;;;;5.85;100.00;98627.20;1727954;82;21003;-71
2022/12/24 09:59:28;;;;;;;79.00;46.80;;;;;;;5.80;100.00;98627.94;1726255;82;21071;-70
2022/12/24 10:01:55;;;;;;;;;;;;;;;5.68;100.00;98624.57;1734185;82;21252;-70
2022/12/24 10:04:27;;;;;;;71.60;40.65;;;;;;;5.84;100.00;98624.81;1738162;82;20111;-69
2022/12/24 10:07:51;;;;;;;68.52;41.45;;;;;;;5.94;100.00;98615.12;1733556;82;20888;-69
2022/12/24 10:10:38;;;;;;;79.50;48.08;;;;;;;5.90;100.00;98621.95;1728300;82;20986;-70
2022/12/24 10:13:33;;;;;;;71.67;41.33;;;;;;;5.69;100.00;98616.88;1734602;82;21019;-70
2022/12/24 10:16:08;;;;;;;83.05;46.10;;;;;;;5.57;100.00;98616.17;1705487;82;21243;-70
2022/12/24 10:18:49;;;;;;;82.60;43.85;;;;;;;5.52;100.00;98611.58;1696581;82;20941;-69
2022/12/24 10:21:42;;;;;;;88.25;48.68;;;;;;;5.51;100.00;98613.14;1708622;82;20952;-70
2022/12/24 10:24:21;;;;;;;77.60;46.15;;;;;;;5.44;100.00;98611.16;1705981;82;21433;-70
2022/12/24 10:27:02;;;;;;;85.65;48.17;;;;;;;5.57;100.00;98608.19;1682266;83;21083;-70
2022/12/24 10:29:33;;;;;;;88.58;50.23;;;;;;;5.57;100.00;98606.86;1706067;82;21177;-70
2022/12/24 10:32:15;;;;;;;80.60;50.20;;;;;;;5.70;100.00;98610.49;1705467;83;21155;-70
2022/12/24 10:34:46;;;;;;;91.80;53.00;;;;;;;5.80;100.00;98620.48;1708442;82;20988;-71
2022/12/24 10:37:20;;;;;;;82.22;48.55;;;;;;;5.74;100.00;98616.15;1706966;83;21011;-71
2022/12/24 10:39:47;;;;;;;89.22;51.35;;;;;;;5.84;100.00;98612.83;1716141;82;21122;-71
2022/12/24 10:42:14;;;;;;;86.02;50.80;;;;;;;6.02;100.00;98613.87;1742578;81;21322;-69
2022/12/24 10:44:40;;;;;;;83.85;47.35;;;;;;;6.00;100.00;98614.14;1735102;82;21105;-69
2022/12/24 10:47:07;;;;;;;89.60;53.83;;;;;;;6.08;100.00;98617.44;1736768;81;20982;-70
2022/12/24 10:50:06;;;;;;;85.40;51.23;;;;;;;5.98;100.00;98614.11;1735447;82;20986;-70
2022/12/24 10:52:36;;;;;;;91.30;52.73;;;;;;;6.00;100.00;98609.32;1740506;82;20874;-71
2022/12/24 10:55:11;;;;;;;102.42;59.18;;;;;;;6.06;100.00;98603.02;1737256;82;21168;-70
2022/12/24 10:57:37;;;;;;;116.62;67.55;;;;;;;6.08;100.00;98604.92;1740918;81;20989;-71
2022/12/24 11:00:06;;;;;;;106.97;64.03;;;;;;;6.03;100.00;98608.02;1747457;81;21547;-71
2022/12/24 11:02:36;;;;;;;98.27;56.13;;;;;;;6.10;100.00;98600.16;1721906;82;20997;-71
2022/12/24 11:05:07;;;;;;;113.68;64.30;;;;;;;5.99;100.00;98603.20;1740022;81;21413;-71
2022/12/24 11:07:34;;;;;;;95.83;57.27;;;;;;;5.96;100.00;98608.22;1747138;81;21239;-70
2022/12/24 11:10:06;;;;;;;96.12;56.30;;;;;;;5.95;100.00;98610.59;1739766;81;21829;-71
2022/12/24 11:12:39;;;;;;;105.58;63.58;;;;;;;5.92;100.00;98612.39;1739798;81;21544;-70
2022/12/24 11:15:30;;;;;;;93.10;56.60;;;;;;;5.88;100.00;98608.59;1724158;81;20959;-71
2022/12/24 11:18:03;;;;;;;87.25;53.33;;;;;;;6.02;100.00;98611.22;1740342;81;20966;-71
2022/12/24 11:20:33;;;;;;;84.77;54.27;;;;;;;6.27;100.00;98613.92;1738344;81;21437;-71
2022/12/24 11:23:01;;;;;;;89.85;53.38;;;;;;;6.27;100.00;98616.08;1734079;80;21200;-70
2022/12/24 11:25:33;;;;;;;97.70;55.63;;;;;;;6.09;100.00;98617.17;1741097;81;21081;-69
2022/12/24 11:28:23;;;;;;;93.72;56.50;;;;;;;6.04;100.00;98619.77;1739177;81;20982;-70
2022/12/24 11:31:03;;;;;;;103.25;60.33;;;;;;;6.20;100.00;98620.79;1741173;80;20917;-70
2022/12/24 11:33:31;;;;;;;86.12;54.10;;;;;;;6.11;100.00;98622.27;1742428;80;21277;-70
2022/12/24 11:36:03;;;;;;;94.37;57.23;;;;;;;6.10;100.00;98621.47;1739478;82;21429;-70
2022/12/24 11:38:31;;;;;;;101.67;58.10;;;;;;;6.28;100.00;98623.55;1740511;81;20864;-71